createdAt,value
2019-03-23T00:02:14.910Z,9.70
2019-03-23T00:04:43.294Z,8.30
2019-03-23T00:07:11.703Z,9.80
2019-03-23T00:09:40.084Z,8.57
2019-03-23T00:12:08.492Z,9.60
2019-03-23T00:14:36.888Z,7.87
2019-03-23T00:17:05.289Z,8.50
2019-03-23T00:19:33.675Z,7.70
2019-03-23T00:22:02.079Z,9.17
2019-03-23T00:24:30.469Z,9.60
2019-03-23T00:26:58.880Z,12.13
2019-03-23T00:29:27.279Z,9.07
2019-03-23T00:31:55.766Z,9.40
2019-03-23T00:34:24.179Z,10.43
2019-03-23T00:36:52.605Z,9.53
2019-03-23T00:39:21.009Z,10.40
2019-03-23T00:41:49.388Z,9.40
2019-03-23T00:44:17.782Z,9.50
2019-03-23T00:46:46.170Z,7.70
2019-03-23T00:49:14.563Z,10.13
2019-03-23T00:51:42.938Z,9.00
2019-03-23T00:54:11.332Z,7.23
2019-03-23T00:56:39.725Z,8.77
2019-03-23T00:59:08.105Z,8.58
2019-03-23T01:01:36.509Z,6.03
2019-03-23T01:04:05.046Z,6.50
2019-03-23T01:06:33.442Z,6.70
2019-03-23T01:09:01.842Z,8.77
2019-03-23T01:11:30.291Z,7.27
2019-03-23T01:13:59.158Z,8.87
2019-03-23T01:16:27.534Z,6.97
2019-03-23T01:18:55.938Z,7.20
2019-03-23T01:21:24.321Z,11.50
2019-03-23T01:23:52.724Z,9.37
2019-03-23T01:26:21.113Z,7.17
2019-03-23T01:28:49.509Z,8.73
2019-03-23T01:31:17.902Z,9.10
2019-03-23T01:33:46.304Z,7.30
2019-03-23T01:36:14.688Z,9.07
2019-03-23T01:38:43.086Z,9.77
2019-03-23T01:41:11.481Z,6.90
2019-03-23T01:43:39.870Z,7.50
2019-03-23T01:46:08.266Z,8.30
2019-03-23T01:48:36.673Z,6.53
2019-03-23T01:51:05.073Z,7.30
2019-03-23T01:53:33.482Z,6.30
2019-03-23T01:56:01.879Z,8.90
2019-03-23T01:58:30.273Z,5.30
2019-03-23T02:00:59.811Z,7.27
2019-03-23T02:03:28.210Z,8.53
2019-03-23T02:05:56.614Z,6.40
2019-03-23T02:11:42.419Z,9.47
2019-03-23T02:14:10.797Z,8.10
2019-03-23T02:16:39.167Z,7.57
2019-03-23T02:19:07.545Z,6.40
2019-03-23T02:21:35.935Z,5.80
2019-03-23T02:24:04.435Z,6.27
2019-03-23T02:26:32.816Z,6.63
2019-03-23T02:29:01.224Z,7.70
2019-03-23T02:31:29.807Z,6.73
2019-03-23T02:33:58.206Z,8.40
2019-03-23T02:36:26.582Z,6.77
2019-03-23T02:38:54.986Z,6.13
2019-03-23T02:41:23.359Z,6.03
2019-03-23T02:43:51.730Z,5.47
2019-03-23T02:46:20.115Z,5.30
2019-03-23T02:48:48.485Z,5.37
2019-03-23T02:51:16.888Z,5.80
2019-03-23T02:53:45.262Z,8.80
2019-03-23T02:56:13.638Z,5.53
2019-03-23T02:58:42.025Z,6.27
2019-03-23T03:01:10.403Z,6.40
2019-03-23T03:03:38.801Z,4.67
2019-03-23T03:06:07.182Z,6.33
2019-03-23T03:08:35.570Z,6.03
2019-03-23T03:11:03.953Z,6.53
2019-03-23T03:13:32.333Z,4.97
2019-03-23T03:16:00.701Z,6.73
2019-03-23T03:18:29.071Z,6.97
2019-03-23T03:20:57.469Z,5.30
2019-03-23T03:23:25.816Z,5.00
2019-03-23T03:25:54.195Z,5.60
2019-03-23T03:28:22.589Z,8.23
2019-03-23T03:30:50.966Z,5.40
2019-03-23T03:33:19.341Z,6.00
2019-03-23T03:35:47.721Z,6.47
2019-03-23T03:38:16.108Z,5.30
2019-03-23T03:40:44.491Z,6.57
2019-03-23T03:43:12.867Z,4.63
2019-03-23T03:45:41.262Z,7.15
2019-03-23T03:48:09.662Z,5.93
2019-03-23T03:50:38.076Z,5.80
2019-03-23T03:53:06.437Z,5.10
2019-03-23T03:55:34.806Z,8.17
2019-03-23T03:58:03.221Z,6.30
2019-03-23T04:00:31.597Z,4.93
2019-03-23T04:03:00.605Z,6.60
2019-03-23T04:05:28.998Z,5.83
2019-03-23T04:08:10.580Z,5.50
2019-03-23T04:10:27.509Z,5.00
2019-03-23T04:12:55.889Z,5.30
2019-03-23T04:15:24.287Z,6.73
2019-03-23T04:17:52.672Z,6.63
2019-03-23T04:20:21.045Z,7.30
2019-03-23T04:22:49.434Z,6.87
2019-03-23T04:25:17.808Z,6.67
2019-03-23T04:27:46.186Z,6.00
2019-03-23T04:30:17.094Z,7.10
2019-03-23T04:32:44.736Z,5.20
2019-03-23T04:35:13.264Z,6.40
2019-03-23T04:37:41.640Z,7.53
2019-03-23T04:40:11.486Z,7.28
2019-03-23T04:42:39.863Z,6.10
2019-03-23T04:45:10.059Z,7.07
2019-03-23T04:47:38.464Z,7.17
2019-03-23T04:50:11.518Z,6.37
2019-03-23T04:52:39.924Z,6.53
2019-03-23T04:55:12.529Z,6.10
2019-03-23T04:57:41.144Z,8.63
2019-03-23T05:00:12.577Z,7.15
2019-03-23T05:02:41.214Z,6.80
2019-03-23T05:05:11.048Z,5.67
2019-03-23T05:07:39.670Z,6.73
2019-03-23T05:10:09.242Z,9.60
2019-03-23T05:12:37.612Z,8.83
2019-03-23T05:15:09.413Z,9.23
2019-03-23T05:17:37.800Z,9.80
2019-03-23T05:20:07.626Z,8.93
2019-03-23T05:22:35.992Z,7.67
2019-03-23T05:25:05.410Z,8.93
2019-03-23T05:27:33.782Z,9.50
2019-03-23T05:30:02.186Z,9.30
2019-03-23T05:32:31.370Z,12.83
2019-03-23T05:34:59.773Z,13.43
2019-03-23T05:37:28.145Z,8.97
2019-03-23T05:39:56.518Z,9.63
2019-03-23T05:42:24.910Z,9.10
2019-03-23T05:44:53.289Z,10.83
2019-03-23T05:47:21.658Z,9.73
2019-03-23T05:49:50.067Z,8.53
2019-03-23T05:52:18.403Z,12.43
2019-03-23T05:54:46.789Z,10.00
2019-03-23T05:57:15.163Z,10.70
2019-03-23T05:59:43.547Z,14.40
2019-03-23T06:02:11.923Z,10.80
2019-03-23T06:04:40.315Z,11.60
2019-03-23T06:07:08.707Z,14.50
2019-03-23T06:09:37.110Z,12.03
2019-03-23T06:12:05.508Z,12.03
2019-03-23T06:14:33.887Z,14.07
2019-03-23T06:17:02.260Z,13.13
2019-03-23T06:19:30.671Z,12.50
2019-03-23T06:21:59.062Z,11.70
2019-03-23T06:24:27.437Z,11.87
2019-03-23T06:26:55.819Z,12.63
2019-03-23T06:29:24.214Z,10.27
2019-03-23T06:31:52.616Z,15.60
2019-03-23T06:34:20.991Z,15.77
2019-03-23T06:36:49.377Z,14.97
2019-03-23T06:39:17.753Z,19.10
2019-03-23T06:41:46.238Z,14.00
2019-03-23T06:44:14.618Z,19.00
2019-03-23T06:46:43.035Z,19.90
2019-03-23T06:49:11.434Z,19.83
2019-03-23T06:51:39.843Z,19.30
2019-03-23T06:54:08.217Z,15.63
2019-03-23T06:56:36.606Z,18.37
2019-03-23T06:59:04.986Z,22.60
2019-03-23T07:01:33.375Z,22.40
2019-03-23T07:04:02.093Z,26.90
2019-03-23T07:06:30.483Z,32.23
2019-03-23T07:08:58.862Z,32.43
2019-03-23T07:11:27.262Z,38.17
2019-03-23T07:13:55.651Z,35.90
2019-03-23T07:16:24.963Z,41.93
2019-03-23T07:18:53.320Z,34.93
2019-03-23T07:21:21.707Z,33.30
2019-03-23T07:23:50.102Z,33.20
2019-03-23T07:26:18.514Z,32.80
2019-03-23T07:28:46.902Z,27.03
2019-03-23T07:31:15.299Z,33.60
2019-03-23T07:33:43.679Z,29.60
2019-03-23T07:36:12.074Z,30.53
2019-03-23T07:38:40.460Z,31.57
2019-03-23T07:41:08.843Z,29.97
2019-03-23T07:43:37.230Z,28.37
2019-03-23T07:46:05.626Z,29.33
2019-03-23T07:48:34.018Z,29.30
2019-03-23T07:51:02.548Z,29.70
2019-03-23T07:53:30.937Z,26.30
2019-03-23T07:55:59.312Z,27.07
2019-03-23T07:58:27.724Z,27.10
2019-03-23T08:00:56.089Z,28.80
2019-03-23T08:03:24.502Z,33.50
2019-03-23T08:05:52.882Z,28.93
2019-03-23T08:08:21.264Z,33.87
2019-03-23T08:10:49.649Z,34.60
2019-03-23T08:13:18.098Z,40.50
2019-03-23T08:15:46.570Z,32.33
2019-03-23T08:18:14.956Z,42.73
2019-03-23T08:20:43.335Z,43.17
2019-03-23T08:23:11.730Z,40.73
2019-03-23T08:25:40.104Z,37.00
2019-03-23T08:28:08.505Z,40.37
2019-03-23T08:30:36.893Z,32.00
2019-03-23T08:33:05.371Z,31.07
2019-03-23T08:35:33.781Z,31.43
2019-03-23T08:38:02.971Z,31.20
2019-03-23T08:40:31.556Z,38.30
2019-03-23T08:42:59.971Z,38.80
2019-03-23T08:45:28.341Z,33.80
2019-03-23T08:47:56.727Z,36.73
2019-03-23T08:50:25.138Z,30.10
2019-03-23T08:52:53.487Z,38.27
2019-03-23T08:55:22.108Z,32.67
2019-03-23T08:57:50.497Z,31.73
2019-03-23T09:00:18.886Z,31.62
2019-03-23T09:02:47.265Z,29.90
2019-03-23T09:05:15.647Z,23.50
2019-03-23T09:07:44.054Z,23.90
2019-03-23T09:10:12.579Z,35.43
2019-03-23T09:12:40.986Z,37.03
2019-03-23T09:15:10.435Z,34.33
2019-03-23T09:17:38.811Z,28.30
2019-03-23T09:20:09.840Z,24.80
2019-03-23T09:22:38.243Z,23.00
2019-03-23T09:25:07.368Z,24.60
2019-03-23T09:27:35.741Z,25.10
2019-03-23T09:30:09.432Z,27.03
2019-03-23T09:32:37.809Z,32.70
2019-03-23T09:35:06.435Z,28.87
2019-03-23T09:37:38.059Z,29.80
2019-03-23T09:40:10.720Z,25.73
2019-03-23T09:42:35.747Z,28.50
2019-03-23T09:45:06.677Z,30.47
2019-03-23T09:47:35.052Z,31.10
2019-03-23T09:50:04.771Z,25.50
2019-03-23T09:52:33.525Z,42.07
2019-03-23T09:55:01.912Z,45.70
2019-03-23T09:57:30.299Z,43.00
2019-03-23T09:59:58.711Z,46.20
2019-03-23T10:02:27.147Z,39.37
2019-03-23T10:04:55.538Z,43.60
2019-03-23T10:07:23.907Z,40.30
2019-03-23T10:09:52.302Z,44.73
2019-03-23T10:12:20.679Z,35.20
2019-03-23T10:14:49.053Z,38.00
2019-03-23T10:17:17.443Z,44.47
2019-03-23T10:19:45.851Z,38.90
2019-03-23T10:22:14.235Z,35.43
2019-03-23T10:24:42.655Z,35.40
2019-03-23T10:27:11.061Z,40.90
2019-03-23T10:29:39.440Z,41.20
2019-03-23T10:32:07.851Z,35.33
2019-03-23T10:34:36.228Z,36.57
2019-03-23T10:37:04.687Z,32.23
2019-03-23T10:39:33.777Z,34.83
2019-03-23T10:42:02.163Z,31.57
2019-03-23T10:44:30.557Z,37.43
2019-03-23T10:46:58.944Z,33.20
2019-03-23T10:49:27.324Z,32.13
2019-03-23T10:51:55.707Z,36.03
2019-03-23T10:54:24.084Z,35.80
2019-03-23T10:56:52.506Z,37.33
2019-03-23T10:59:20.887Z,37.33
2019-03-23T11:01:49.281Z,32.83
2019-03-23T11:04:17.682Z,31.17
2019-03-23T11:06:46.069Z,31.67
2019-03-23T11:09:14.448Z,30.13
2019-03-23T11:11:42.850Z,34.50
2019-03-23T11:14:11.226Z,27.77
2019-03-23T11:16:39.612Z,28.53
2019-03-23T11:19:13.313Z,28.20
2019-03-23T11:21:38.136Z,29.40
2019-03-23T11:24:06.538Z,30.17
2019-03-23T11:26:34.922Z,26.30
2019-03-23T11:29:04.173Z,27.80
2019-03-23T11:31:32.558Z,28.33
2019-03-23T11:34:00.934Z,28.67
2019-03-23T11:36:29.320Z,27.07
2019-03-23T11:38:57.698Z,29.10
2019-03-23T11:41:26.076Z,33.53
2019-03-23T11:43:54.473Z,33.00
2019-03-23T11:46:22.853Z,27.37
2019-03-23T11:48:51.256Z,30.23
2019-03-23T11:51:19.716Z,26.60
2019-03-23T11:53:48.268Z,26.42
2019-03-23T11:56:16.646Z,25.37
2019-03-23T11:58:45.033Z,22.63
2019-03-23T12:01:13.403Z,24.13
2019-03-23T12:03:41.795Z,24.30
2019-03-23T12:06:10.266Z,24.43
2019-03-23T12:08:38.649Z,25.27
2019-03-23T12:11:07.019Z,21.40
2019-03-23T12:13:35.408Z,24.00
2019-03-23T12:16:04.594Z,22.40
2019-03-23T12:18:32.983Z,20.67
2019-03-23T12:21:01.386Z,23.10
2019-03-23T12:23:29.778Z,22.30
2019-03-23T12:25:58.207Z,23.97
2019-03-23T12:28:26.602Z,21.47
2019-03-23T12:30:55.008Z,19.50
2019-03-23T12:33:23.393Z,26.43
2019-03-23T12:35:51.792Z,23.62
2019-03-23T12:38:20.175Z,23.13
2019-03-23T12:40:48.557Z,21.50
2019-03-23T12:43:16.949Z,21.80
2019-03-23T12:45:45.394Z,22.27
2019-03-23T12:48:13.796Z,19.77
2019-03-23T12:50:42.174Z,19.40
2019-03-23T12:53:10.563Z,21.63
2019-03-23T12:55:38.942Z,18.80
2019-03-23T12:58:07.331Z,20.00
2019-03-23T13:00:35.708Z,22.13
2019-03-23T13:03:05.036Z,20.07
2019-03-23T13:05:33.434Z,20.27
2019-03-23T13:08:01.831Z,18.77
2019-03-23T13:10:30.214Z,18.40
2019-03-23T13:12:58.592Z,17.97
2019-03-23T13:15:26.977Z,20.30
2019-03-23T13:17:55.359Z,18.23
2019-03-23T13:20:23.802Z,18.23
2019-03-23T13:22:52.199Z,16.33
2019-03-23T13:25:20.589Z,18.40
2019-03-23T13:27:48.965Z,20.83
2019-03-23T13:30:17.992Z,18.50
2019-03-23T13:32:46.374Z,17.50
2019-03-23T13:35:14.828Z,20.10
2019-03-23T13:37:43.207Z,20.80
2019-03-23T13:40:12.452Z,23.83
2019-03-23T13:42:40.851Z,20.40
2019-03-23T13:45:10.066Z,28.33
2019-03-23T13:47:39.283Z,20.17
2019-03-23T13:50:08.946Z,21.40
2019-03-23T13:52:37.395Z,26.93
2019-03-23T13:55:07.248Z,25.53
2019-03-23T13:57:35.626Z,20.60
2019-03-23T14:00:06.657Z,22.17
2019-03-23T14:02:35.541Z,21.03
2019-03-23T14:05:04.669Z,18.10
2019-03-23T14:07:33.048Z,16.83
2019-03-23T14:10:01.467Z,17.50
2019-03-23T14:12:29.840Z,17.60
2019-03-23T14:14:58.222Z,22.20
2019-03-23T14:17:26.604Z,17.87
2019-03-23T14:19:55.001Z,17.33
2019-03-23T14:22:23.458Z,19.13
2019-03-23T14:24:51.836Z,15.90
2019-03-23T14:27:20.228Z,24.17
2019-03-23T14:29:48.606Z,22.00
2019-03-23T14:32:17.000Z,24.40
2019-03-23T14:34:45.370Z,21.95
2019-03-23T14:37:13.757Z,17.13
2019-03-23T14:39:42.130Z,19.47
2019-03-23T14:42:10.516Z,22.07
2019-03-23T14:44:38.891Z,18.07
2019-03-23T14:47:07.302Z,17.37
2019-03-23T14:49:35.908Z,17.43
2019-03-23T14:52:04.395Z,17.20
2019-03-23T14:54:32.772Z,21.23
2019-03-23T14:57:01.160Z,20.80
2019-03-23T14:59:29.559Z,15.90
2019-03-23T15:01:57.944Z,16.57
2019-03-23T15:04:26.321Z,17.27
2019-03-23T15:06:54.743Z,17.27
2019-03-23T15:09:23.115Z,19.63
2019-03-23T15:11:51.520Z,16.93
2019-03-23T15:14:19.911Z,14.63
2019-03-23T15:16:48.431Z,19.07
2019-03-23T15:19:16.839Z,15.30
2019-03-23T15:21:45.223Z,19.30
2019-03-23T15:24:13.669Z,20.23
2019-03-23T15:26:42.042Z,16.23
2019-03-23T15:29:10.423Z,15.53
2019-03-23T15:31:38.800Z,19.10
2019-03-23T15:34:07.208Z,16.93
2019-03-23T15:36:36.251Z,19.10
2019-03-23T15:39:07.264Z,19.07
2019-03-23T15:41:36.326Z,19.80
2019-03-23T15:44:04.713Z,23.47
2019-03-23T15:46:33.092Z,24.80
2019-03-23T15:49:01.482Z,19.10
2019-03-23T15:51:29.855Z,25.10
2019-03-23T15:53:58.243Z,22.50
2019-03-23T15:56:26.645Z,24.73
2019-03-23T15:58:55.063Z,25.70
2019-03-23T16:01:23.507Z,20.67
2019-03-23T16:03:52.055Z,22.47
2019-03-23T16:06:20.433Z,20.63
2019-03-23T16:08:48.819Z,22.67
2019-03-23T16:11:17.191Z,22.23
2019-03-23T16:13:45.575Z,26.43
2019-03-23T16:16:13.973Z,20.00
2019-03-23T16:18:42.430Z,16.20
2019-03-23T16:21:10.804Z,25.23
2019-03-23T16:23:39.306Z,21.20
2019-03-23T16:26:07.707Z,18.30
2019-03-23T16:28:36.839Z,22.80
2019-03-23T16:31:06.899Z,20.60
2019-03-23T16:33:35.288Z,20.07
2019-03-23T16:36:03.789Z,22.73
2019-03-23T16:38:32.205Z,16.20
2019-03-23T16:41:00.580Z,19.30
2019-03-23T16:43:28.967Z,21.67
2019-03-23T16:45:57.349Z,18.90
2019-03-23T16:48:25.734Z,18.80
2019-03-23T16:50:54.111Z,16.85
2019-03-23T16:53:22.510Z,15.63
2019-03-23T16:55:50.987Z,16.77
2019-03-23T16:58:19.409Z,17.37
2019-03-23T17:00:47.849Z,15.13
2019-03-23T17:03:16.276Z,18.53
2019-03-23T17:05:44.682Z,15.47
2019-03-23T17:08:13.059Z,15.07
2019-03-23T17:10:41.466Z,16.23
2019-03-23T17:13:09.834Z,14.47
2019-03-23T17:15:38.219Z,16.50
2019-03-23T17:18:07.192Z,15.33
2019-03-23T17:20:35.583Z,16.27
2019-03-23T17:23:03.960Z,18.57
2019-03-23T17:25:32.363Z,13.90
2019-03-23T17:28:00.752Z,17.80
2019-03-23T17:30:29.164Z,16.57
2019-03-23T17:32:57.535Z,16.40
2019-03-23T17:35:25.924Z,20.03
2019-03-23T17:37:55.306Z,17.10
2019-03-23T17:40:23.753Z,16.80
2019-03-23T17:42:52.134Z,22.13
2019-03-23T17:45:20.620Z,22.03
2019-03-23T17:47:49.019Z,15.40
2019-03-23T17:50:17.409Z,15.40
2019-03-23T17:52:46.017Z,18.37
2019-03-23T17:55:14.472Z,18.77
2019-03-23T17:57:42.876Z,18.27
2019-03-23T18:00:12.292Z,21.13
2019-03-23T18:02:40.651Z,18.70
2019-03-23T18:05:12.243Z,17.47
2019-03-23T18:07:40.744Z,18.33
2019-03-23T18:10:09.861Z,25.90
2019-03-23T18:12:38.263Z,23.00
2019-03-23T18:15:08.932Z,17.10
2019-03-23T18:17:37.737Z,25.40
2019-03-23T18:20:06.851Z,16.27
2019-03-23T18:22:35.311Z,13.80
2019-03-23T18:25:04.624Z,23.97
2019-03-23T18:27:33.036Z,18.10
2019-03-23T18:30:01.441Z,20.70
2019-03-23T18:32:29.826Z,22.03
2019-03-23T18:34:58.264Z,17.40
2019-03-23T18:37:26.672Z,19.00
2019-03-23T18:39:55.046Z,24.10
2019-03-23T18:42:23.430Z,18.52
2019-03-23T18:44:51.833Z,15.17
2019-03-23T18:47:20.216Z,22.47
2019-03-23T18:49:48.592Z,17.97
2019-03-23T18:52:16.975Z,23.60
2019-03-23T18:54:45.353Z,22.27
2019-03-23T18:57:13.744Z,20.50
2019-03-23T18:59:42.145Z,19.30
2019-03-23T19:02:10.532Z,17.07
2019-03-23T19:04:38.908Z,19.33
2019-03-23T19:07:08.136Z,20.77
2019-03-23T19:09:36.520Z,51.00
2019-03-23T19:12:04.992Z,93.60
2019-03-23T19:14:33.373Z,89.00
2019-03-23T19:17:01.782Z,99.10
2019-03-23T19:19:30.182Z,139.67
2019-03-23T19:21:58.577Z,163.20
2019-03-23T19:24:26.980Z,120.80
2019-03-23T19:26:55.360Z,123.70
2019-03-23T19:29:23.746Z,179.23
2019-03-23T19:31:52.127Z,191.17
2019-03-23T19:34:20.516Z,209.90
2019-03-23T19:36:48.914Z,215.57
2019-03-23T19:39:17.371Z,199.07
2019-03-23T19:41:45.739Z,171.77
2019-03-23T19:44:14.130Z,214.97
2019-03-23T19:46:42.515Z,192.57
2019-03-23T19:49:10.903Z,182.30
2019-03-23T19:51:39.302Z,166.80
2019-03-23T19:54:08.407Z,149.50
2019-03-23T19:56:36.783Z,130.90
2019-03-23T19:59:05.434Z,141.13
2019-03-23T20:01:33.822Z,114.20
2019-03-23T20:04:02.209Z,112.93
2019-03-23T20:06:30.602Z,107.40
2019-03-23T20:08:58.997Z,100.73
2019-03-23T20:11:27.513Z,107.43
2019-03-23T20:13:59.027Z,101.50
2019-03-23T20:16:26.114Z,104.63
2019-03-23T20:18:54.515Z,108.03
2019-03-23T20:21:22.911Z,102.58
2019-03-23T20:23:51.411Z,91.73
2019-03-23T20:26:20.343Z,86.73
2019-03-23T20:28:48.777Z,87.03
2019-03-23T20:31:17.307Z,90.90
2019-03-23T20:33:45.827Z,81.67
2019-03-23T20:36:14.210Z,75.60
2019-03-23T20:38:42.747Z,75.50
2019-03-23T20:41:11.124Z,75.80
2019-03-23T20:43:39.560Z,78.23
2019-03-23T20:46:09.148Z,68.70
2019-03-23T20:48:38.525Z,70.63
2019-03-23T20:51:06.915Z,67.87
2019-03-23T20:53:35.387Z,72.33
2019-03-23T20:56:03.774Z,65.93
2019-03-23T20:58:32.211Z,62.90
2019-03-23T21:01:00.572Z,65.43
2019-03-23T21:03:28.960Z,57.57
2019-03-23T21:05:57.353Z,59.67
2019-03-23T21:08:25.733Z,63.83
2019-03-23T21:10:54.158Z,48.50
2019-03-23T21:13:22.634Z,58.03
2019-03-23T21:15:51.039Z,57.80
2019-03-23T21:18:19.421Z,47.13
2019-03-23T21:20:47.978Z,51.00
2019-03-23T21:23:16.355Z,47.87
2019-03-23T21:25:44.818Z,46.90
2019-03-23T21:28:13.200Z,47.67
2019-03-23T21:30:41.623Z,49.27
2019-03-23T21:33:10.017Z,46.37
2019-03-23T21:35:39.251Z,41.43
2019-03-23T21:38:07.659Z,45.13
2019-03-23T21:40:36.044Z,44.40
2019-03-23T21:43:04.492Z,41.70
2019-03-23T21:45:32.879Z,48.43
2019-03-23T21:48:01.262Z,38.60
2019-03-23T21:50:29.795Z,33.77
2019-03-23T21:52:58.166Z,33.13
2019-03-23T21:55:26.546Z,34.40
2019-03-23T21:57:54.944Z,39.17
2019-03-23T22:00:31.441Z,36.33
2019-03-23T22:03:00.104Z,40.73
2019-03-23T22:05:28.466Z,36.47
2019-03-23T22:07:56.924Z,33.80
2019-03-23T22:10:25.316Z,32.37
2019-03-23T22:12:53.721Z,33.83
2019-03-23T22:15:22.106Z,32.53
2019-03-23T22:17:50.504Z,36.60
2019-03-23T22:20:18.964Z,30.40
2019-03-23T22:22:47.441Z,31.40
2019-03-23T22:25:15.814Z,32.47
2019-03-23T22:27:44.320Z,30.30
2019-03-23T22:30:16.140Z,35.80
2019-03-23T22:32:44.534Z,28.90
2019-03-23T22:35:13.051Z,31.53
2019-03-23T22:37:41.445Z,25.07
2019-03-23T22:40:12.932Z,29.83
2019-03-23T22:42:41.328Z,28.37
2019-03-23T22:45:10.029Z,24.70
2019-03-23T22:47:38.420Z,26.50
2019-03-23T22:50:07.425Z,28.10
2019-03-23T22:52:35.809Z,28.23
2019-03-23T22:55:05.645Z,24.77
2019-03-23T22:57:34.112Z,27.90
2019-03-23T23:00:02.505Z,28.57
2019-03-23T23:02:30.896Z,28.27
2019-03-23T23:04:59.299Z,23.27
2019-03-23T23:07:27.689Z,26.70
2019-03-23T23:09:56.069Z,25.72
2019-03-23T23:12:24.536Z,23.60
2019-03-23T23:15:03.799Z,22.35
2019-03-23T23:17:23.001Z,26.00
2019-03-23T23:19:51.456Z,23.42
2019-03-23T23:22:19.831Z,20.77
2019-03-23T23:24:48.217Z,25.10
2019-03-23T23:27:16.618Z,23.37
2019-03-23T23:29:45.013Z,27.27
2019-03-23T23:32:13.485Z,21.33
2019-03-23T23:34:41.879Z,17.53
2019-03-23T23:37:10.284Z,20.10
2019-03-23T23:39:38.674Z,22.80
2019-03-23T23:42:07.163Z,20.97
2019-03-23T23:44:37.008Z,21.80
2019-03-23T23:47:05.427Z,25.20
2019-03-23T23:49:33.841Z,19.23
2019-03-23T23:52:02.243Z,21.20
2019-03-23T23:54:30.635Z,19.70
2019-03-23T23:56:59.024Z,18.63
2019-03-23T23:59:27.841Z,24.30
